Pagrindinis puslapis
METAR-TAF:

METAR-TAF

Oro uostai :

Gazipaşa, Turkija

platuma: 36-17-56N, ilguma: 32-18-00E, Aukštis: 15 m

Dabartinis oras

Ataskaita buvo paskelbta 31 minutes, ne 00:50 UTC
Ramus vėjas
Temperatūra 6°C
Drėgmė 93%
Slėgis 1014 hPa
Matomumas 10 km arba daugiau
Išsisklaidę debesys ne aukštis 3000 ft

METAR: LTFG 190050Z 00000KT 9999 SCT030 06/05 Q1014

Laikas: 04:21 (01:21 UTC)

Prognozė

Ataskaita buvo paskelbta 2 valandos ir 41 minutes, ne 22:40 UTC
Prognozė galioja nuo 19 metu 00 UTC su 19 metu 09 UTC
Vėjas 2 kt nuo kintamojo kryptimis
Matomumas 10 km arba daugiau
Su prošvaistėmis ne aukštis 3000 ft
lietus
Tapsmas
nuo 19 metu 00 UTC su 19 metu 03 UTC
Išsisklaidę debesys ne aukštis 3000 ft
Tapsmas
nuo 19 metu 03 UTC su 19 metu 06 UTC
Matomumas 10 km arba daugiau
nėra debesų žemiau 1500 m ir nėra kamuolinių lietaus debesų

TAF: LTFG 182240Z 1900/1909 VRB02KT 9999 -SHRA BKN030 BECMG 1900/1903 SCT030 BECMG 1903/1906 CAVOK

Orai ataskaitas ir orų prognozės (METAR, TAF).

turimą stotys yra geltonos ir raudonos taškus žemėlapyje.

Perkelti pele per norėdami pamatyti stoties vardą.

Tada spustelėkite, norėdami matyti oro stebėjimo ir prognozės.

Norėdami pakeisti žemėlapį: spustelėkite ant žalios mygtukų su juodo kryžiaus žemyn,; žalią mygtuką su brūkšneliu, jei norite nutolinti; arba žalių rodyklių gretimoms žemėlapius.


METAR-TAF: